| Date | Time | Temp. (oF) | Dew Point (oF) | Rel. Hum. (%) | Press. (in.) | Wind Dir. | Wind Speed (mph) | Hourly Rainfall (in.) |
|
|---|---|---|---|---|---|---|---|---|---|
| 1 | 09/10 | 00:00 | 57 | 52 | 84 | 30.31 | E | 0 | 0.00 |
| 2 | 09/09 | 23:00 | 60 | 52 | 76 | 30.31 | NE | 2 | 0.00 |
| 3 | 09/09 | 22:00 | 61 | 51 | 72 | 30.29 | NE | 2 | 0.00 |
| 4 | 09/09 | 21:00 | 63 | 52 | 68 | 30.28 | ENE | 2 | 0.00 |
| 5 | 09/09 | 20:00 | 66 | 54 | 66 | 30.27 | ESE | 4 | 0.00 |
| 6 | 09/09 | 19:00 | 69 | 54 | 61 | 30.24 | ENE | 3 | 0.00 |
| 7 | 09/09 | 18:00 | 72 | 54 | 55 | 30.22 | SE | 3 | 0.00 |
| 8 | 09/09 | 17:00 | 75 | 55 | 51 | 30.22 | NNE | 5 | 0.00 |
| 9 | 09/09 | 16:00 | 76 | 56 | 52 | 30.22 | NE | 11 | 0.00 |
| 10 | 09/09 | 15:00 | 75 | 55 | 51 | 30.25 | E | 11 | 0.00 |
| 11 | 09/09 | 14:00 | 76 | 58 | 55 | 30.26 | E | 10 | 0.00 |
| 12 | 09/09 | 13:00 | 75 | 57 | 54 | 30.27 | NE | 5 | 0.00 |
| 13 | 09/09 | 12:00 | 73 | 56 | 56 | 30.27 | ESE | 6 | 0.00 |
| 14 | 09/09 | 11:00 | 71 | 56 | 60 | 30.27 | E | 10 | 0.00 |
| 15 | 09/09 | 10:00 | 69 | 59 | 72 | 30.26 | ESE | 10 | 0.00 |
| 16 | 09/09 | 09:00 | 65 | 62 | 93 | 30.25 | NE | 6 | 0.00 |
| 17 | 09/09 | 08:00 | 64 | 62 | 96 | 30.24 | NE | 5 | 0.00 |
| 18 | 09/09 | 07:00 | 64 | 62 | 96 | 30.23 | ENE | 4 | 0.00 |
| 19 | 09/09 | 06:00 | 65 | 63 | 94 | 30.21 | NNE | 4 | 0.00 |
| 20 | 09/09 | 05:00 | 65 | 62 | 93 | 30.19 | N | 3 | 0.00 |
| 21 | 09/09 | 04:00 | 65 | 61 | 90 | 30.18 | NE | 2 | 0.00 |
| 22 | 09/09 | 03:00 | 67 | 63 | 89 | 30.19 | NE | 4 | 0.00 |
| 23 | 09/09 | 02:00 | 67 | 62 | 87 | 30.18 | ESE | 1 | 0.00 |
| 24 | 09/09 | 01:00 | 69 | 65 | 88 | 30.17 | SSE | 1 | 0.00 |